createdAt,value
2022-08-09T00:00:07.022Z,46.65
2022-08-09T00:02:36.108Z,45.95
2022-08-09T00:06:17.348Z,46.80
2022-08-09T00:07:54.283Z,47.03
2022-08-09T00:10:24.470Z,46.80
2022-08-09T00:12:53.360Z,45.92
2022-08-09T00:15:26.739Z,45.01
2022-08-09T00:18:11.478Z,45.95
2022-08-09T00:20:42.192Z,46.70
2022-08-09T00:23:55.774Z,46.73
2022-08-09T00:26:14.510Z,46.64
2022-08-09T00:28:52.303Z,46.44
2022-08-09T00:31:55.711Z,45.93
2022-08-09T00:34:10.795Z,45.05
2022-08-09T00:36:39.959Z,44.29
2022-08-09T00:40:09.099Z,44.42
2022-08-09T00:44:11.595Z,45.04
2022-08-09T00:44:47.717Z,44.96
2022-08-09T00:47:15.870Z,44.80
2022-08-09T00:49:54.687Z,44.59
2022-08-09T00:52:28.148Z,45.90
2022-08-09T00:55:00.988Z,45.73
2022-08-09T00:57:34.411Z,46.09
2022-08-09T01:00:05.447Z,45.64
2022-08-09T01:02:53.388Z,45.91
2022-08-09T01:05:51.434Z,45.74
2022-08-09T01:08:12.996Z,45.90
2022-08-09T01:10:53.134Z,46.21
2022-08-09T01:13:23.638Z,46.26
2022-08-09T01:15:59.243Z,45.98
2022-08-09T01:18:31.455Z,46.46
2022-08-09T01:21:04.371Z,46.95
2022-08-09T01:24:02.524Z,47.05
2022-08-09T01:26:37.279Z,47.02
2022-08-09T01:29:06.354Z,47.13
2022-08-09T01:32:30.623Z,46.83
2022-08-09T01:34:22.330Z,46.56
2022-08-09T01:36:50.002Z,46.26
2022-08-09T01:39:17.780Z,46.82
2022-08-09T01:41:53.500Z,46.74
2022-08-09T01:44:24.322Z,47.31
2022-08-09T01:46:53.093Z,47.39
2022-08-09T01:49:24.323Z,47.55
2022-08-09T01:51:53.742Z,47.28
2022-08-09T01:54:22.859Z,46.98
2022-08-09T01:56:52.495Z,47.39
2022-08-09T01:59:24.808Z,46.99
2022-08-09T02:02:01.237Z,47.03
2022-08-09T02:04:30.105Z,47.11
2022-08-09T02:07:15.380Z,47.45
2022-08-09T02:09:59.272Z,47.40
2022-08-09T02:12:30.633Z,48.19
2022-08-09T02:14:58.680Z,47.72
2022-08-09T02:18:01.734Z,47.67
2022-08-09T02:20:26.408Z,48.43
2022-08-09T02:23:01.387Z,48.33
2022-08-09T02:25:30.527Z,48.03
2022-08-09T02:28:03.859Z,47.83
2022-08-09T02:30:34.109Z,47.39
2022-08-09T02:33:01.795Z,47.67
2022-08-09T02:36:03.294Z,47.87
2022-08-09T02:38:21.991Z,48.57
2022-08-09T02:41:00.974Z,49.03
2022-08-09T02:43:54.031Z,48.38
2022-08-09T02:46:20.312Z,48.41
2022-08-09T02:48:48.326Z,48.21
2022-08-09T02:51:19.890Z,48.42
2022-08-09T02:54:00.507Z,48.76
2022-08-09T02:56:29.021Z,49.51
2022-08-09T02:58:59.928Z,49.43
2022-08-09T03:01:29.537Z,49.09
2022-08-09T03:04:17.806Z,49.73
2022-08-09T03:06:50.636Z,51.41
2022-08-09T03:09:21.966Z,51.58
2022-08-09T03:12:05.743Z,52.21
2022-08-09T03:14:41.102Z,51.49
2022-08-09T03:17:16.643Z,50.92
2022-08-09T03:20:02.706Z,51.55
2022-08-09T03:22:31.896Z,51.25
2022-08-09T03:25:06.245Z,51.94
2022-08-09T03:27:50.565Z,52.05
2022-08-09T03:30:30.235Z,51.25
2022-08-09T03:33:11.065Z,51.70
2022-08-09T03:36:13.143Z,51.85
2022-08-09T03:38:33.608Z,51.15
2022-08-09T03:41:03.697Z,51.11
2022-08-09T03:43:33.293Z,51.83
2022-08-09T03:46:13.566Z,51.59
2022-08-09T03:48:50.951Z,52.87
2022-08-09T03:51:55.185Z,52.73
2022-08-09T03:54:10.920Z,53.17
2022-08-09T03:56:41.115Z,53.43
2022-08-09T03:59:13.505Z,53.17
2022-08-09T04:01:46.869Z,52.30
2022-08-09T04:04:15.334Z,52.80
2022-08-09T04:06:49.311Z,51.92
2022-08-09T04:09:47.758Z,52.57
2022-08-09T04:12:30.127Z,53.58
2022-08-09T04:15:00.963Z,53.02
2022-08-09T04:17:32.406Z,53.50
2022-08-09T04:20:02.708Z,53.56
2022-08-09T04:22:31.890Z,53.25
2022-08-09T04:25:03.098Z,53.57
2022-08-09T04:27:32.870Z,53.59
2022-08-09T04:30:08.530Z,53.12
2022-08-09T04:32:39.032Z,52.94
2022-08-09T04:35:14.093Z,52.17
2022-08-09T04:37:46.255Z,52.64
2022-08-09T04:40:46.686Z,53.07
2022-08-09T04:43:17.914Z,53.16
2022-08-09T04:45:53.044Z,53.00
2022-08-09T04:48:23.842Z,51.65
2022-08-09T04:51:03.222Z,51.91
2022-08-09T04:53:31.389Z,51.95
2022-08-09T04:56:01.547Z,51.48
2022-08-09T04:58:32.924Z,51.06
2022-08-09T05:01:01.940Z,50.28
2022-08-09T05:03:43.197Z,49.29
2022-08-09T05:06:11.846Z,49.19
2022-08-09T05:08:49.897Z,49.12
2022-08-09T05:11:17.640Z,48.79
2022-08-09T05:13:49.358Z,48.50
2022-08-09T05:16:17.895Z,47.62
2022-08-09T05:18:57.533Z,47.85
2022-08-09T05:21:30.499Z,48.67
2022-08-09T05:24:05.455Z,47.85
2022-08-09T05:26:45.216Z,49.03
2022-08-09T05:29:21.581Z,48.76
2022-08-09T05:31:56.651Z,48.46
2022-08-09T05:34:30.631Z,47.77
2022-08-09T05:37:11.318Z,46.96
2022-08-09T05:39:43.627Z,46.64
2022-08-09T05:42:17.247Z,45.94
2022-08-09T05:44:50.669Z,45.62
2022-08-09T05:47:19.629Z,46.59
2022-08-09T05:50:23.533Z,45.83
2022-08-09T05:52:44.393Z,45.91
2022-08-09T05:55:21.833Z,46.33
2022-08-09T05:57:58.557Z,46.84
2022-08-09T06:00:29.013Z,45.90
2022-08-09T06:02:57.750Z,45.34
2022-08-09T06:05:54.687Z,44.94
2022-08-09T06:08:24.901Z,45.34
2022-08-09T06:10:53.735Z,44.59
2022-08-09T06:13:21.502Z,45.41
2022-08-09T06:15:53.244Z,45.38
2022-08-09T06:18:24.768Z,44.65
2022-08-09T06:20:57.599Z,44.70
2022-08-09T06:23:55.406Z,45.03
2022-08-09T06:26:20.500Z,46.14
2022-08-09T06:28:49.684Z,46.11
2022-08-09T06:31:31.184Z,45.75
2022-08-09T06:34:07.869Z,46.39
2022-08-09T06:36:42.883Z,46.01
2022-08-09T06:39:12.662Z,46.28
2022-08-09T06:42:08.798Z,47.37
2022-08-09T06:44:29.134Z,47.04
2022-08-09T06:46:57.734Z,47.08
2022-08-09T06:49:45.132Z,47.24
2022-08-09T06:52:18.014Z,48.21
2022-08-09T06:54:46.000Z,48.24
2022-08-09T06:57:14.110Z,48.42
2022-08-09T07:00:49.342Z,48.38
2022-08-09T07:02:34.436Z,48.70
2022-08-09T07:05:05.636Z,47.91
2022-08-09T07:07:59.681Z,47.88
2022-08-09T07:10:32.379Z,48.10
2022-08-09T07:13:18.721Z,48.18
2022-08-09T07:15:54.014Z,47.60
2022-08-09T07:18:43.096Z,48.75
2022-08-09T07:21:14.151Z,49.12
2022-08-09T07:23:46.665Z,48.13
2022-08-09T07:26:27.499Z,47.64
2022-08-09T07:29:08.424Z,47.92
2022-08-09T07:31:45.497Z,47.83
2022-08-09T07:34:20.811Z,48.32
2022-08-09T07:36:54.114Z,47.99
2022-08-09T07:39:40.251Z,47.79
2022-08-09T07:42:12.192Z,47.18
2022-08-09T07:44:51.813Z,46.75
2022-08-09T07:47:23.216Z,47.16
2022-08-09T07:50:05.391Z,47.69
2022-08-09T07:52:36.663Z,48.01
2022-08-09T07:55:08.765Z,48.20
2022-08-09T07:57:37.536Z,48.13
2022-08-09T08:00:20.326Z,47.81
2022-08-09T08:03:01.998Z,47.28
2022-08-09T08:05:54.491Z,47.21
2022-08-09T08:09:02.469Z,47.16
2022-08-09T08:12:11.194Z,46.56
2022-08-09T08:14:04.614Z,46.53
2022-08-09T08:16:34.678Z,46.85
2022-08-09T08:19:02.823Z,46.00
2022-08-09T08:21:32.759Z,46.05
2022-08-09T08:24:01.365Z,46.83
2022-08-09T08:26:47.479Z,46.25
2022-08-09T08:29:28.643Z,45.69
2022-08-09T08:32:07.842Z,46.22
2022-08-09T08:34:40.518Z,46.24
2022-08-09T08:37:14.339Z,47.14
2022-08-09T08:39:50.538Z,46.13
2022-08-09T08:42:24.216Z,44.65
2022-08-09T08:45:00.483Z,44.96
2022-08-09T08:47:42.769Z,45.09
2022-08-09T08:50:18.085Z,45.37
2022-08-09T08:52:59.564Z,45.29
2022-08-09T08:55:28.623Z,45.38
2022-08-09T08:58:01.444Z,45.12
2022-08-09T09:00:34.694Z,44.99
2022-08-09T09:03:12.461Z,44.76
2022-08-09T09:06:03.082Z,45.50
2022-08-09T09:08:40.428Z,44.94
2022-08-09T09:11:17.745Z,44.37
2022-08-09T09:13:57.351Z,43.36
2022-08-09T09:16:31.033Z,43.47
2022-08-09T09:22:03.957Z,43.82
2022-08-09T09:24:34.688Z,43.40
2022-08-09T09:27:05.230Z,44.12
2022-08-09T09:29:57.971Z,43.55
2022-08-09T09:32:32.273Z,42.46
2022-08-09T09:35:09.279Z,42.75
2022-08-09T09:37:40.409Z,42.80
2022-08-09T09:40:09.328Z,42.40
2022-08-09T09:42:37.876Z,42.55
2022-08-09T09:45:09.375Z,41.79
2022-08-09T09:47:56.278Z,42.18
2022-08-09T09:50:42.196Z,41.82
2022-08-09T09:53:18.126Z,41.75
2022-08-09T09:56:04.282Z,41.98
2022-08-09T09:58:47.893Z,41.17
2022-08-09T10:01:22.070Z,40.94
2022-08-09T10:04:08.876Z,40.12
2022-08-09T10:06:42.613Z,40.90
2022-08-09T10:09:22.454Z,41.04
2022-08-09T10:12:14.761Z,40.79
2022-08-09T10:14:53.269Z,40.29
2022-08-09T10:17:51.071Z,40.19
2022-08-09T10:20:27.789Z,41.32
2022-08-09T10:23:11.171Z,40.67
2022-08-09T10:26:07.110Z,40.18
2022-08-09T10:28:30.896Z,40.32
2022-08-09T10:34:10.710Z,41.11
2022-08-09T10:36:45.129Z,40.74
2022-08-09T10:39:18.247Z,40.96
2022-08-09T10:41:48.168Z,40.96
2022-08-09T10:44:18.215Z,40.11
2022-08-09T10:47:20.472Z,40.05
2022-08-09T10:50:00.130Z,39.91
2022-08-09T10:52:42.621Z,39.21
2022-08-09T10:55:25.438Z,38.80
2022-08-09T10:57:55.632Z,38.78
2022-08-09T11:00:41.710Z,38.55
2022-08-09T11:03:51.443Z,39.48
2022-08-09T11:06:22.822Z,38.73
2022-08-09T11:08:59.733Z,38.21
2022-08-09T11:12:05.196Z,37.56
2022-08-09T11:14:35.454Z,37.86
2022-08-09T11:17:09.199Z,38.25
2022-08-09T11:20:10.043Z,38.48
2022-08-09T11:23:14.460Z,38.18
2022-08-09T11:25:48.153Z,37.46
2022-08-09T11:28:38.640Z,36.30
2022-08-09T11:31:43.113Z,37.59
2022-08-09T11:34:12.013Z,37.71
2022-08-09T11:36:42.907Z,36.78
2022-08-09T11:39:14.371Z,35.75
2022-08-09T11:41:46.763Z,36.89
2022-08-09T11:44:16.947Z,36.92
2022-08-09T11:46:54.320Z,35.93
2022-08-09T11:49:42.859Z,36.31
2022-08-09T11:53:03.372Z,35.93
2022-08-09T11:55:34.985Z,35.61
2022-08-09T11:58:37.097Z,35.99
2022-08-09T12:01:08.797Z,35.86
2022-08-09T12:03:57.552Z,35.40
2022-08-09T12:06:32.380Z,33.96
2022-08-09T12:09:03.751Z,34.27
2022-08-09T12:11:44.683Z,33.71
2022-08-09T12:14:36.910Z,35.33
2022-08-09T12:17:27.877Z,35.21
2022-08-09T12:20:16.771Z,35.06
2022-08-09T12:22:50.598Z,34.55
2022-08-09T12:25:31.947Z,33.89
2022-08-09T12:29:13.383Z,34.07
2022-08-09T12:31:00.216Z,33.78
2022-08-09T12:33:35.572Z,35.02
2022-08-09T12:36:31.387Z,35.13
2022-08-09T12:39:00.658Z,34.25
2022-08-09T12:41:29.341Z,32.99
2022-08-09T12:44:06.555Z,32.93
2022-08-09T12:46:36.176Z,33.11
2022-08-09T12:49:09.998Z,34.03
2022-08-09T12:52:00.150Z,33.19
2022-08-09T12:54:26.775Z,34.21
2022-08-09T12:56:54.854Z,33.48
2022-08-09T12:59:23.533Z,32.62
2022-08-09T13:02:04.549Z,31.49
2022-08-09T13:04:40.136Z,31.67
2022-08-09T13:07:11.652Z,32.04
2022-08-09T13:09:55.951Z,33.02
2022-08-09T13:12:29.287Z,33.23
2022-08-09T13:15:04.656Z,32.66
2022-08-09T13:18:02.947Z,32.74
2022-08-09T13:20:37.871Z,33.17
2022-08-09T13:24:17.397Z,33.32
2022-08-09T13:26:10.313Z,32.98
2022-08-09T13:28:39.624Z,32.51
2022-08-09T13:32:15.194Z,32.15
2022-08-09T13:33:58.242Z,32.23
2022-08-09T13:36:40.413Z,32.50
2022-08-09T13:41:19.328Z,32.24
2022-08-09T13:42:02.836Z,31.28
2022-08-09T13:44:30.973Z,31.77
2022-08-09T13:47:29.520Z,32.16
2022-08-09T13:49:57.420Z,32.16
2022-08-09T13:52:31.110Z,31.94
2022-08-09T13:55:04.532Z,32.02
2022-08-09T13:57:35.498Z,31.32
2022-08-09T14:00:12.053Z,31.05
2022-08-09T14:02:42.636Z,31.25
2022-08-09T14:05:59.404Z,31.09
2022-08-09T14:08:18.131Z,30.68
2022-08-09T14:10:56.623Z,30.33
2022-08-09T14:14:16.368Z,30.01
2022-08-09T14:16:14.711Z,31.17
2022-08-09T14:18:45.959Z,31.64
2022-08-09T14:21:18.873Z,31.48
2022-08-09T14:23:55.603Z,30.92
2022-08-09T14:26:31.513Z,31.02
2022-08-09T14:29:01.126Z,30.54
2022-08-09T14:31:50.260Z,29.75
2022-08-09T14:34:32.366Z,30.12
2022-08-09T14:37:01.367Z,30.76
2022-08-09T14:39:45.666Z,30.61
2022-08-09T14:42:29.044Z,30.88
2022-08-09T14:45:14.853Z,31.30
2022-08-09T14:47:57.371Z,30.52
2022-08-09T14:50:27.283Z,30.50
2022-08-09T14:52:54.980Z,31.32
2022-08-09T14:55:32.671Z,30.95
2022-08-09T14:58:03.313Z,29.98
2022-08-09T15:00:31.558Z,29.77
2022-08-09T15:03:00.233Z,30.36
2022-08-09T15:05:29.560Z,30.35
2022-08-09T15:07:58.290Z,30.54
2022-08-09T15:10:27.962Z,30.51
2022-08-09T15:13:03.001Z,30.75
2022-08-09T15:15:34.288Z,30.56
2022-08-09T15:18:08.147Z,30.33
2022-08-09T15:21:56.277Z,30.83
2022-08-09T15:24:01.742Z,30.53
2022-08-09T15:26:19.319Z,30.67
2022-08-09T15:29:04.530Z,30.03
2022-08-09T15:31:41.296Z,30.84
2022-08-09T15:34:34.986Z,30.63
2022-08-09T15:37:05.869Z,30.86
2022-08-09T15:39:34.484Z,30.29
2022-08-09T15:42:07.500Z,29.88
2022-08-09T15:44:35.150Z,30.10
2022-08-09T15:47:03.297Z,30.02
2022-08-09T15:49:32.871Z,29.80
2022-08-09T15:52:03.029Z,29.56
2022-08-09T15:54:43.067Z,30.05
2022-08-09T15:57:18.925Z,30.50
2022-08-09T16:00:01.565Z,30.37
2022-08-09T16:02:31.298Z,30.26
2022-08-09T16:05:04.114Z,29.87
2022-08-09T16:07:39.322Z,30.01
2022-08-09T16:10:17.241Z,29.99
2022-08-09T16:13:21.217Z,30.48
2022-08-09T16:16:04.414Z,30.64
2022-08-09T16:18:45.320Z,30.59
2022-08-09T16:21:17.421Z,30.53
2022-08-09T16:23:55.673Z,31.46
2022-08-09T16:26:34.689Z,31.61
2022-08-09T16:29:06.101Z,31.73
2022-08-09T16:32:20.130Z,31.47
2022-08-09T16:34:29.080Z,32.00
2022-08-09T16:36:59.991Z,31.78
2022-08-09T16:39:28.077Z,31.45
2022-08-09T16:42:07.583Z,32.01
2022-08-09T16:44:37.623Z,32.75
2022-08-09T16:48:38.093Z,32.74
2022-08-09T16:50:32.009Z,32.52
2022-08-09T16:52:45.808Z,32.58
2022-08-09T16:55:18.178Z,31.70
2022-08-09T16:58:08.928Z,31.80
2022-08-09T17:00:38.813Z,31.61
2022-08-09T17:03:21.114Z,32.34
2022-08-09T17:06:31.183Z,31.90
2022-08-09T17:08:59.025Z,31.98
2022-08-09T17:11:40.742Z,31.90
2022-08-09T17:14:26.017Z,32.52
2022-08-09T17:17:00.102Z,33.05
2022-08-09T17:20:05.958Z,32.74
2022-08-09T17:22:24.991Z,33.38
2022-08-09T17:25:09.822Z,32.51
2022-08-09T17:27:38.800Z,33.01
2022-08-09T17:30:12.897Z,33.00
2022-08-09T17:32:46.306Z,33.36
2022-08-09T17:35:14.531Z,33.29
2022-08-09T17:38:11.869Z,33.54
2022-08-09T17:40:33.996Z,33.57
2022-08-09T17:43:10.902Z,33.57
2022-08-09T17:46:03.012Z,33.30
2022-08-09T17:48:34.756Z,33.80
2022-08-09T17:51:17.469Z,34.02
2022-08-09T17:53:51.780Z,33.69
2022-08-09T17:56:20.423Z,33.76
2022-08-09T17:58:48.491Z,33.97
2022-08-09T18:01:22.585Z,33.91
2022-08-09T18:03:55.792Z,34.16
2022-08-09T18:06:32.267Z,34.19
2022-08-09T18:09:03.159Z,34.07
2022-08-09T18:12:05.889Z,34.04
2022-08-09T18:14:23.874Z,34.34
2022-08-09T18:16:53.007Z,34.55
2022-08-09T18:20:57.442Z,34.43
2022-08-09T18:22:13.301Z,34.75
2022-08-09T18:24:45.696Z,34.68
2022-08-09T18:27:49.222Z,34.71
2022-08-09T18:30:40.711Z,34.57
2022-08-09T18:32:54.680Z,34.57
2022-08-09T18:35:59.962Z,34.53
2022-08-09T18:38:22.802Z,34.81
2022-08-09T18:40:53.632Z,34.97
2022-08-09T18:43:21.406Z,35.02
2022-08-09T18:46:49.011Z,35.00
2022-08-09T18:48:38.616Z,35.04
2022-08-09T18:51:11.450Z,35.18
2022-08-09T18:53:59.603Z,35.30
2022-08-09T18:56:28.563Z,35.23
2022-08-09T18:58:56.786Z,35.37
2022-08-09T19:01:24.574Z,35.46
2022-08-09T19:04:01.277Z,35.52
2022-08-09T19:06:36.223Z,36.03
2022-08-09T19:09:07.019Z,36.03
2022-08-09T19:11:37.881Z,36.35
2022-08-09T19:14:06.810Z,36.16
2022-08-09T19:16:50.135Z,35.88
2022-08-09T19:19:25.422Z,36.04
2022-08-09T19:22:06.686Z,36.45
2022-08-09T19:24:39.577Z,36.46
2022-08-09T19:27:28.971Z,36.93
2022-08-09T19:30:21.523Z,37.06
2022-08-09T19:32:45.240Z,36.95
2022-08-09T19:35:13.288Z,36.72
2022-08-09T19:37:55.880Z,37.06
2022-08-09T19:40:33.145Z,36.98
2022-08-09T19:43:05.248Z,37.29
2022-08-09T19:45:40.534Z,37.29
2022-08-09T19:48:10.648Z,37.47
2022-08-09T19:50:49.298Z,37.72
2022-08-09T19:53:21.062Z,37.69
2022-08-09T19:56:03.332Z,37.98
2022-08-09T19:58:35.710Z,38.30
2022-08-09T20:01:04.050Z,38.47
2022-08-09T20:04:26.567Z,38.65
2022-08-09T20:06:22.537Z,38.62
2022-08-09T20:08:56.619Z,39.33
2022-08-09T20:11:25.811Z,39.33
2022-08-09T20:13:56.926Z,39.22
2022-08-09T20:16:39.063Z,39.47
2022-08-09T20:19:49.544Z,39.31
2022-08-09T20:22:08.977Z,38.88
2022-08-09T20:24:40.702Z,39.25
2022-08-09T20:27:08.932Z,39.19
2022-08-09T20:29:39.729Z,39.35
2022-08-09T20:32:28.611Z,39.29
2022-08-09T20:34:55.831Z,39.56
2022-08-09T20:37:24.083Z,39.88
2022-08-09T20:40:15.151Z,39.87
2022-08-09T20:42:46.539Z,40.02
2022-08-09T20:45:56.807Z,39.55
2022-08-09T20:48:21.317Z,39.92
2022-08-09T20:50:55.814Z,39.80
2022-08-09T20:53:35.418Z,39.98
2022-08-09T20:56:20.557Z,40.56
2022-08-09T20:58:50.050Z,40.08
2022-08-09T21:01:35.174Z,40.10
2022-08-09T21:05:53.562Z,40.46
2022-08-09T21:06:56.463Z,40.30
2022-08-09T21:09:41.850Z,40.06
2022-08-09T21:14:51.462Z,40.10
2022-08-09T21:18:11.922Z,40.25
2022-08-09T21:20:26.426Z,40.59
2022-08-09T21:22:55.771Z,40.50
2022-08-09T21:25:44.356Z,40.40
2022-08-09T21:28:34.129Z,40.84
2022-08-09T21:31:17.532Z,40.91
2022-08-09T21:33:50.469Z,41.10
2022-08-09T21:36:25.765Z,40.41
2022-08-09T21:38:57.561Z,40.71
2022-08-09T21:42:06.101Z,41.00
2022-08-09T21:44:34.488Z,41.32
2022-08-09T21:47:03.850Z,41.39
2022-08-09T21:49:40.149Z,41.26
2022-08-09T21:52:14.791Z,41.65
2022-08-09T21:54:46.313Z,41.51
2022-08-09T21:57:36.999Z,42.11
2022-08-09T22:00:12.011Z,41.81
2022-08-09T22:02:43.107Z,42.02
2022-08-09T22:05:22.949Z,41.75
2022-08-09T22:07:54.172Z,41.98
2022-08-09T22:10:23.956Z,41.91
2022-08-09T22:12:52.968Z,42.00
2022-08-09T22:15:34.852Z,42.10
2022-08-09T22:18:03.351Z,41.97
2022-08-09T22:20:33.069Z,41.96
2022-08-09T22:23:00.816Z,42.22
2022-08-09T22:26:07.453Z,41.82
2022-08-09T22:28:29.677Z,41.86
2022-08-09T22:31:04.528Z,42.16
2022-08-09T22:33:37.547Z,41.59
2022-08-09T22:36:19.417Z,41.74
2022-08-09T22:38:47.512Z,41.39
2022-08-09T22:41:15.224Z,41.64
2022-08-09T22:44:01.845Z,41.96
2022-08-09T22:48:12.382Z,41.88
2022-08-09T22:49:21.069Z,41.88
2022-08-09T22:51:56.809Z,41.86
2022-08-09T22:54:35.382Z,41.57
2022-08-09T22:57:03.478Z,41.33
2022-08-09T22:59:56.800Z,41.38
2022-08-09T23:02:20.656Z,40.92
2022-08-09T23:04:53.693Z,41.58
2022-08-09T23:08:22.380Z,41.66
2022-08-09T23:10:27.947Z,42.80
2022-08-09T23:12:55.602Z,43.21
2022-08-09T23:15:23.347Z,43.23
2022-08-09T23:17:52.358Z,43.90
2022-08-09T23:20:19.981Z,43.66
2022-08-09T23:22:47.623Z,44.07
2022-08-09T23:25:15.376Z,44.25
2022-08-09T23:28:14.829Z,44.50
2022-08-09T23:30:33.143Z,44.60
2022-08-09T23:33:05.905Z,44.75
2022-08-09T23:36:05.067Z,44.73
2022-08-09T23:38:22.483Z,44.44
2022-08-09T23:40:54.185Z,44.13
2022-08-09T23:43:22.149Z,44.23
2022-08-09T23:45:49.874Z,44.26
2022-08-09T23:48:19.631Z,43.86
2022-08-09T23:50:47.468Z,44.25
2022-08-09T23:53:15.285Z,43.80
2022-08-09T23:56:01.249Z,44.00
2022-08-09T23:58:35.939Z,43.92
